Messwerte Kozani

Temperatur

Temperatur
°C
1574182800 19.00 19.00 11
1574186400 20.00 20.00 12
1574190000 21.00 21.00 11
1574193600 22.00 22.00 11
1574197200 23.00 23.00
1574200800 0.00 0.00
1574204400 1.00 1.00
1574208000 2.00 2.00
1574211600 3.00 3.00 13
1574215200 4.00 4.00 12
1574218800 5.00 5.00
1574222400 6.00 6.00
1574226000 7.00 7.00
1574229600 8.00 8.00 11
1574233200 9.00 9.00 11
1574236800 10.00 10.00 11
1574240400 11.00 11.00 13
1574244000 12.00 12.00 14
1574247600 13.00 13.00 14
1574251200 14.00 14.00 15
1574254800 15.00 15.00 15
1574258400 16.00 16.00 14
1574262000 17.00 17.00 13
1574265600 18.00 18.00 11

Aktuellste Messwerte

Temperatur
11 °C
Feuchtigkeit
80 %
Wind
5 km/h, -
Luftdruck
1017 hPa
Messzeit: 20. November 2019, 18.00Datenquelle: METAR

Weitere Messstationen in der Nähe

Messstation Temperatur Entfernung
Larisa - 92 km
Thessaloniki 19 °C 104 km
Ioannina 11 °C 105 km
Ohrid 13 °C 123 km
Anchialos 18 °C 148 km
Korfu 17 °C 177 km
Skopje 14 °C 186 km

Wind

Windrichtung Böen Mittelwind
° km/h km/h
1574182800 19.00 18.00 - 19.00 0
1574186400 20.00 19.00 - 20.00 5
1574190000 21.00 20.00 - 21.00 0
1574193600 22.00 21.00 - 22.00 5
1574197200 23.00 22.00 - 23.00
1574200800 0.00 23.00 - 0.00
1574204400 1.00 0.00 - 1.00
1574208000 2.00 1.00 - 2.00
1574211600 3.00 2.00 - 3.00 160° 20
1574215200 4.00 3.00 - 4.00 140° 10
1574218800 5.00 4.00 - 5.00
1574222400 6.00 5.00 - 6.00
1574226000 7.00 6.00 - 7.00
1574229600 8.00 7.00 - 8.00 0
1574233200 9.00 8.00 - 9.00 0
1574236800 10.00 9.00 - 10.00 100° 5
1574240400 11.00 10.00 - 11.00 180° 5
1574244000 12.00 11.00 - 12.00 180° 20
1574247600 13.00 12.00 - 13.00 100° 20
1574251200 14.00 13.00 - 14.00 170° 15
1574254800 15.00 14.00 - 15.00 170° 15
1574258400 16.00 15.00 - 16.00 5
1574262000 17.00 16.00 - 17.00 180° 10
1574265600 18.00 17.00 - 18.00 5

Ihre Wetterstation

Fehlt Ihre Wetterstation auf unserem Portal?

Schreiben Sie an network@meteonews.ch

Klima

Wann ist es am wärmsten? Wann regnet es am wenigsten? Unsere Klimadaten geben Auskunft.